createdAt,value
2022-09-29T00:00:11.512Z,3.60
2022-09-29T00:01:11.494Z,3.50
2022-09-29T00:02:11.584Z,3.90
2022-09-29T00:03:11.501Z,3.60
2022-09-29T00:04:11.472Z,3.60
2022-09-29T00:05:13.973Z,3.50
2022-09-29T00:06:11.431Z,4.00
2022-09-29T00:07:11.472Z,3.80
2022-09-29T00:08:11.415Z,3.70
2022-09-29T00:09:11.485Z,4.10
2022-09-29T00:10:11.392Z,3.40
2022-09-29T00:11:11.400Z,3.60
2022-09-29T00:12:12.401Z,3.80
2022-09-29T00:13:11.488Z,3.50
2022-09-29T00:14:11.383Z,3.70
2022-09-29T00:15:11.366Z,4.10
2022-09-29T00:16:11.439Z,3.60
2022-09-29T00:17:11.959Z,3.60
2022-09-29T00:18:14.899Z,3.80
2022-09-29T00:19:11.969Z,3.70
2022-09-29T00:20:11.283Z,4.00
2022-09-29T00:21:11.970Z,3.90
2022-09-29T00:22:11.488Z,3.80
2022-09-29T00:23:13.963Z,3.60
2022-09-29T00:24:11.348Z,4.40
2022-09-29T00:25:11.228Z,4.10
2022-09-29T00:26:11.220Z,4.20
2022-09-29T00:27:11.213Z,3.90
2022-09-29T00:28:11.232Z,3.90
2022-09-29T00:29:11.183Z,4.40
2022-09-29T00:30:11.181Z,4.40
2022-09-29T00:31:11.240Z,4.50
2022-09-29T00:32:11.167Z,4.00
2022-09-29T00:33:11.141Z,4.70
2022-09-29T00:34:12.180Z,4.40
2022-09-29T00:35:11.123Z,4.40
2022-09-29T00:36:11.125Z,4.60
2022-09-29T00:37:11.097Z,4.60
2022-09-29T00:38:11.114Z,4.60
2022-09-29T00:39:11.091Z,4.70
2022-09-29T00:40:11.072Z,5.10
2022-09-29T00:41:11.056Z,4.70
2022-09-29T00:42:11.052Z,4.90
2022-09-29T00:43:12.995Z,4.50
2022-09-29T00:44:11.112Z,5.20
2022-09-29T00:45:11.016Z,5.20
2022-09-29T00:46:11.147Z,4.80
2022-09-29T00:47:10.996Z,5.10
2022-09-29T00:48:10.981Z,5.20
2022-09-29T00:49:10.965Z,5.00
2022-09-29T00:50:10.997Z,5.00
2022-09-29T00:51:10.951Z,5.30
2022-09-29T00:52:10.933Z,5.30
2022-09-29T00:53:10.938Z,4.90
2022-09-29T00:54:10.914Z,4.80
2022-09-29T00:55:11.461Z,4.90
2022-09-29T00:56:10.903Z,5.40
2022-09-29T00:57:10.890Z,5.40
2022-09-29T00:58:10.863Z,5.50
2022-09-29T00:59:10.863Z,5.70
2022-09-29T01:00:10.880Z,5.50
2022-09-29T01:01:10.966Z,5.00
2022-09-29T01:02:10.864Z,5.50
2022-09-29T01:03:10.835Z,4.90
2022-09-29T01:04:10.878Z,5.20
2022-09-29T01:05:10.802Z,5.60
2022-09-29T01:06:11.464Z,5.90
2022-09-29T01:07:10.799Z,5.10
2022-09-29T01:08:10.764Z,5.10
2022-09-29T01:09:13.465Z,5.40
2022-09-29T01:10:10.745Z,5.20
2022-09-29T01:11:11.461Z,5.60
2022-09-29T01:12:10.721Z,5.10
2022-09-29T01:13:10.729Z,5.10
2022-09-29T01:14:13.467Z,5.50
2022-09-29T01:15:10.708Z,5.50
2022-09-29T01:16:13.554Z,5.50
2022-09-29T01:17:10.667Z,5.60
2022-09-29T01:18:10.671Z,6.10
2022-09-29T01:19:12.031Z,6.00
2022-09-29T01:20:13.463Z,5.70
2022-09-29T01:21:10.627Z,5.00
2022-09-29T01:22:13.470Z,5.60
2022-09-29T01:23:10.599Z,5.60
2022-09-29T01:24:10.601Z,5.80
2022-09-29T01:25:10.991Z,5.90
2022-09-29T01:26:10.572Z,5.80
2022-09-29T01:27:10.567Z,6.00
2022-09-29T01:28:11.463Z,6.10
2022-09-29T01:29:10.550Z,5.90
2022-09-29T01:30:11.456Z,5.40
2022-09-29T01:31:11.519Z,5.30
2022-09-29T01:32:10.612Z,5.90
2022-09-29T01:33:10.492Z,5.80
2022-09-29T01:34:10.497Z,5.30
2022-09-29T01:35:10.475Z,5.90
2022-09-29T01:36:10.455Z,5.50
2022-09-29T01:37:10.443Z,5.40
2022-09-29T01:38:10.436Z,5.50
2022-09-29T01:39:10.424Z,5.50
2022-09-29T01:40:11.474Z,5.30
2022-09-29T01:41:10.388Z,5.40
2022-09-29T01:42:10.386Z,5.70
2022-09-29T01:43:10.962Z,5.70
2022-09-29T01:44:10.363Z,5.50
2022-09-29T01:45:10.374Z,5.60
2022-09-29T01:46:10.380Z,5.10
2022-09-29T01:47:10.360Z,5.60
2022-09-29T01:48:10.331Z,5.60
2022-09-29T01:49:10.317Z,5.40
2022-09-29T01:50:10.283Z,5.40
2022-09-29T01:51:10.496Z,5.90
2022-09-29T01:52:10.270Z,5.20
2022-09-29T01:53:10.289Z,5.10
2022-09-29T01:54:10.258Z,5.10
2022-09-29T01:55:10.248Z,5.50
2022-09-29T01:56:10.244Z,5.20
2022-09-29T01:57:10.223Z,5.10
2022-09-29T01:58:10.207Z,5.70
2022-09-29T01:59:10.207Z,5.60
2022-09-29T02:00:10.188Z,5.30
2022-09-29T02:01:10.243Z,5.70
2022-09-29T02:02:10.221Z,5.70
2022-09-29T02:03:13.016Z,5.70
2022-09-29T02:04:10.140Z,5.70
2022-09-29T02:05:10.135Z,6.30
2022-09-29T02:06:10.135Z,6.20
2022-09-29T02:07:10.124Z,6.40
2022-09-29T02:08:10.124Z,6.00
2022-09-29T02:09:10.097Z,5.80
2022-09-29T02:10:10.083Z,5.50
2022-09-29T02:11:10.068Z,4.90
2022-09-29T02:12:10.067Z,5.70
2022-09-29T02:13:10.048Z,5.40
2022-09-29T02:14:10.057Z,5.20
2022-09-29T02:15:10.965Z,5.70
2022-09-29T02:16:10.106Z,5.30
2022-09-29T02:17:10.009Z,5.30
2022-09-29T02:18:12.973Z,5.40
2022-09-29T02:19:11.012Z,5.80
2022-09-29T02:20:09.976Z,5.70
2022-09-29T02:21:09.982Z,5.20
2022-09-29T02:22:09.947Z,5.40
2022-09-29T02:23:09.962Z,5.50
2022-09-29T02:24:09.940Z,5.30
2022-09-29T02:25:09.920Z,5.80
2022-09-29T02:26:09.928Z,5.60
2022-09-29T02:27:09.895Z,5.30
2022-09-29T02:28:09.909Z,5.70
2022-09-29T02:29:09.878Z,5.60
2022-09-29T02:30:09.864Z,5.70
2022-09-29T02:31:09.896Z,5.70
2022-09-29T02:32:09.857Z,5.40
2022-09-29T02:33:09.847Z,4.80
2022-09-29T02:34:09.824Z,5.10
2022-09-29T02:35:09.831Z,5.30
2022-09-29T02:36:09.817Z,5.10
2022-09-29T02:37:09.997Z,5.30
2022-09-29T02:38:10.460Z,5.10
2022-09-29T02:39:09.775Z,5.50
2022-09-29T02:40:09.748Z,5.30
2022-09-29T02:41:09.744Z,5.30
2022-09-29T02:42:09.756Z,5.40
2022-09-29T02:43:09.725Z,5.50
2022-09-29T02:44:09.709Z,5.40
2022-09-29T02:45:09.707Z,5.90
2022-09-29T02:46:09.751Z,5.30
2022-09-29T02:47:09.687Z,4.70
2022-09-29T02:48:09.693Z,4.40
2022-09-29T02:49:09.663Z,5.00
2022-09-29T02:50:09.657Z,5.10
2022-09-29T02:51:09.649Z,4.90
2022-09-29T02:52:09.624Z,5.30
2022-09-29T02:53:10.465Z,5.00
2022-09-29T02:54:09.640Z,5.50
2022-09-29T02:55:09.603Z,5.10
2022-09-29T02:56:09.595Z,5.30
2022-09-29T02:57:10.628Z,5.00
2022-09-29T02:58:09.563Z,4.70
2022-09-29T02:59:09.576Z,5.20
2022-09-29T03:00:09.573Z,4.90
2022-09-29T03:01:09.602Z,5.50
2022-09-29T03:02:09.533Z,5.10
2022-09-29T03:03:09.543Z,5.30
2022-09-29T03:04:09.535Z,5.60
2022-09-29T03:05:09.498Z,5.10
2022-09-29T03:06:09.496Z,5.00
2022-09-29T03:07:09.481Z,4.90
2022-09-29T03:08:11.980Z,5.00
2022-09-29T03:09:09.443Z,5.40
2022-09-29T03:10:09.459Z,5.20
2022-09-29T03:11:09.444Z,5.70
2022-09-29T03:12:09.408Z,5.40
2022-09-29T03:13:09.970Z,5.00
2022-09-29T03:14:09.403Z,5.10
2022-09-29T03:15:09.377Z,5.20
2022-09-29T03:16:09.480Z,4.80
2022-09-29T03:17:09.363Z,5.40
2022-09-29T03:18:10.294Z,4.90
2022-09-29T03:19:09.339Z,5.00
2022-09-29T03:20:09.334Z,5.20
2022-09-29T03:21:09.315Z,5.90
2022-09-29T03:22:09.345Z,5.60
2022-09-29T03:23:09.312Z,5.40
2022-09-29T03:24:09.288Z,5.60
2022-09-29T03:25:09.265Z,5.10
2022-09-29T03:26:09.268Z,5.30
2022-09-29T03:27:09.267Z,5.40
2022-09-29T03:28:09.243Z,5.10
2022-09-29T03:29:09.964Z,5.00
2022-09-29T03:30:09.226Z,5.50
2022-09-29T03:31:09.282Z,4.90
2022-09-29T03:32:09.219Z,5.80
2022-09-29T03:33:09.213Z,4.80
2022-09-29T03:34:09.189Z,4.90
2022-09-29T03:35:09.971Z,4.70
2022-09-29T03:36:09.134Z,4.90
2022-09-29T03:37:31.468Z,5.20
2022-09-29T03:38:09.138Z,5.20
2022-09-29T03:39:09.160Z,5.30
2022-09-29T03:40:09.977Z,5.30
2022-09-29T03:41:09.113Z,6.00
2022-09-29T03:42:09.091Z,4.70
2022-09-29T03:43:09.106Z,5.10
2022-09-29T03:44:09.083Z,5.10
2022-09-29T03:45:09.081Z,5.00
2022-09-29T03:46:09.104Z,5.30
2022-09-29T03:47:09.051Z,4.90
2022-09-29T03:48:11.963Z,4.60
2022-09-29T03:49:09.046Z,4.70
2022-09-29T03:50:09.033Z,4.50
2022-09-29T03:51:08.992Z,4.80
2022-09-29T03:52:08.988Z,4.80
2022-09-29T03:53:08.974Z,4.70
2022-09-29T03:54:08.976Z,8.60
2022-09-29T03:55:08.973Z,5.00
2022-09-29T03:56:08.960Z,5.20
2022-09-29T03:57:08.932Z,5.40
2022-09-29T03:58:08.931Z,5.00
2022-09-29T03:59:08.907Z,5.70
2022-09-29T04:00:09.004Z,5.50
2022-09-29T04:01:08.979Z,5.50
2022-09-29T04:02:08.914Z,5.50
2022-09-29T04:03:08.871Z,5.60
2022-09-29T04:04:08.865Z,5.10
2022-09-29T04:05:08.886Z,5.70
2022-09-29T04:06:08.839Z,5.50
2022-09-29T04:07:08.844Z,5.90
2022-09-29T04:08:09.829Z,5.30
2022-09-29T04:09:08.817Z,5.00
2022-09-29T04:10:08.797Z,5.20
2022-09-29T04:11:08.795Z,5.00
2022-09-29T04:12:08.766Z,5.80
2022-09-29T04:13:08.756Z,5.60
2022-09-29T04:14:08.764Z,5.70
2022-09-29T04:15:08.767Z,5.20
2022-09-29T04:16:08.809Z,6.10
2022-09-29T04:17:08.766Z,6.00
2022-09-29T04:18:08.704Z,5.40
2022-09-29T04:19:08.691Z,5.70
2022-09-29T04:20:08.688Z,5.70
2022-09-29T04:21:08.689Z,5.70
2022-09-29T04:22:08.656Z,5.50
2022-09-29T04:23:11.523Z,5.40
2022-09-29T04:24:08.643Z,5.80
2022-09-29T04:25:09.479Z,6.00
2022-09-29T04:26:08.639Z,5.50
2022-09-29T04:27:08.640Z,5.40
2022-09-29T04:28:08.602Z,5.90
2022-09-29T04:29:08.615Z,5.80
2022-09-29T04:30:08.575Z,5.50
2022-09-29T04:31:08.613Z,6.00
2022-09-29T04:32:08.549Z,5.60
2022-09-29T04:33:08.552Z,5.30
2022-09-29T04:34:08.532Z,5.40
2022-09-29T04:35:08.534Z,5.40
2022-09-29T04:36:08.521Z,5.40
2022-09-29T04:37:08.494Z,5.60
2022-09-29T04:38:08.491Z,5.30
2022-09-29T04:39:08.477Z,5.10
2022-09-29T04:40:08.484Z,5.30
2022-09-29T04:41:08.448Z,6.90
2022-09-29T04:42:08.457Z,6.10
2022-09-29T04:43:08.450Z,5.60
2022-09-29T04:44:08.415Z,6.10
2022-09-29T04:45:08.404Z,5.50
2022-09-29T04:46:08.471Z,5.50
2022-09-29T04:47:08.370Z,5.00
2022-09-29T04:48:08.385Z,5.50
2022-09-29T04:49:08.990Z,5.50
2022-09-29T04:50:08.360Z,5.30
2022-09-29T04:51:08.371Z,5.90
2022-09-29T04:52:08.345Z,5.50
2022-09-29T04:53:08.325Z,5.40
2022-09-29T04:54:08.336Z,5.90
2022-09-29T04:55:08.302Z,6.10
2022-09-29T04:56:08.314Z,6.00
2022-09-29T04:57:08.300Z,5.90
2022-09-29T04:58:08.283Z,6.10
2022-09-29T04:59:08.273Z,5.90
2022-09-29T05:00:08.976Z,5.60
2022-09-29T05:01:08.293Z,5.50
2022-09-29T05:02:08.279Z,5.90
2022-09-29T05:03:08.257Z,5.60
2022-09-29T05:04:08.209Z,5.20
2022-09-29T05:05:08.208Z,5.40
2022-09-29T05:06:08.182Z,5.90
2022-09-29T05:07:10.986Z,5.40
2022-09-29T05:08:08.494Z,6.10
2022-09-29T05:09:10.982Z,5.30
2022-09-29T05:10:08.137Z,5.50
2022-09-29T05:11:08.127Z,5.60
2022-09-29T05:12:08.112Z,4.90
2022-09-29T05:13:08.109Z,5.60
2022-09-29T05:14:08.496Z,5.70
2022-09-29T05:15:08.104Z,5.50
2022-09-29T05:16:11.098Z,6.10
2022-09-29T05:17:08.972Z,5.80
2022-09-29T05:18:08.070Z,6.00
2022-09-29T05:19:08.071Z,5.70
2022-09-29T05:20:08.029Z,6.00
2022-09-29T05:21:27.067Z,5.70
2022-09-29T05:22:09.019Z,5.80
2022-09-29T05:23:07.995Z,5.50
2022-09-29T05:24:08.000Z,5.60
2022-09-29T05:25:07.980Z,5.80
2022-09-29T05:26:07.960Z,5.90
2022-09-29T05:27:10.481Z,5.50
2022-09-29T05:28:07.932Z,5.40
2022-09-29T05:29:08.002Z,5.30
2022-09-29T05:30:08.477Z,5.80
2022-09-29T05:31:07.980Z,5.80
2022-09-29T05:32:08.471Z,6.10
2022-09-29T05:33:10.474Z,6.00
2022-09-29T05:34:08.956Z,6.10
2022-09-29T05:35:07.890Z,6.30
2022-09-29T05:36:07.870Z,6.30
2022-09-29T05:37:07.843Z,6.00
2022-09-29T05:38:07.878Z,6.30
2022-09-29T05:39:07.820Z,6.30
2022-09-29T05:40:07.809Z,6.00
2022-09-29T05:41:07.841Z,6.00
2022-09-29T05:42:07.793Z,6.00
2022-09-29T05:43:07.798Z,5.40
2022-09-29T05:44:07.805Z,5.60
2022-09-29T05:45:07.756Z,5.70
2022-09-29T05:46:07.850Z,5.60
2022-09-29T05:47:07.752Z,5.60
2022-09-29T05:48:07.722Z,6.50
2022-09-29T05:49:08.462Z,5.50
2022-09-29T05:50:08.477Z,5.70
2022-09-29T05:51:07.697Z,5.50
2022-09-29T05:52:07.995Z,5.70
2022-09-29T05:53:10.461Z,6.10
2022-09-29T05:54:07.657Z,6.30
2022-09-29T05:55:08.965Z,6.70
2022-09-29T05:56:07.640Z,6.10
2022-09-29T05:57:07.646Z,5.90
2022-09-29T05:58:07.613Z,5.90
2022-09-29T05:59:08.480Z,6.30
2022-09-29T06:00:08.466Z,6.50
2022-09-29T06:01:08.570Z,6.30
2022-09-29T06:02:07.612Z,6.50
2022-09-29T06:03:07.749Z,6.70
2022-09-29T06:04:07.587Z,7.50
2022-09-29T06:05:07.541Z,8.70
2022-09-29T06:06:07.542Z,12.30
2022-09-29T06:07:08.001Z,11.90
2022-09-29T06:08:07.502Z,8.50
2022-09-29T06:09:07.508Z,7.20
2022-09-29T06:10:07.498Z,6.20
2022-09-29T06:11:07.484Z,6.30
2022-09-29T06:12:13.983Z,6.00
2022-09-29T06:13:07.453Z,6.30
2022-09-29T06:14:07.496Z,6.30
2022-09-29T06:15:07.458Z,6.00
2022-09-29T06:16:08.027Z,6.10
2022-09-29T06:17:07.975Z,6.40
2022-09-29T06:18:07.395Z,6.60
2022-09-29T06:19:07.434Z,6.20
2022-09-29T06:20:09.967Z,6.00
2022-09-29T06:21:07.367Z,6.80
2022-09-29T06:22:07.967Z,6.40
2022-09-29T06:23:21.967Z,6.50
2022-09-29T06:24:07.386Z,6.90
2022-09-29T06:25:07.326Z,7.10
2022-09-29T06:26:07.308Z,6.70
2022-09-29T06:27:07.964Z,7.10
2022-09-29T06:28:07.288Z,7.20
2022-09-29T06:29:09.979Z,6.90
2022-09-29T06:30:07.289Z,7.80
2022-09-29T06:31:07.265Z,7.10
2022-09-29T06:32:07.295Z,7.00
2022-09-29T06:33:07.242Z,7.60
2022-09-29T06:34:07.236Z,8.60
2022-09-29T06:35:07.261Z,8.00
2022-09-29T06:36:07.226Z,7.40
2022-09-29T06:37:07.213Z,7.30
2022-09-29T06:38:07.176Z,7.90
2022-09-29T06:39:09.037Z,7.20
2022-09-29T06:40:10.910Z,7.40
2022-09-29T06:41:07.204Z,7.00
2022-09-29T06:42:07.184Z,7.30
2022-09-29T06:43:07.967Z,7.10
2022-09-29T06:44:07.111Z,7.40
2022-09-29T06:45:07.114Z,7.20
2022-09-29T06:46:07.985Z,7.20
2022-09-29T06:47:07.094Z,7.40
2022-09-29T06:48:07.105Z,7.10
2022-09-29T06:49:07.085Z,7.40
2022-09-29T06:50:08.101Z,7.50
2022-09-29T06:51:10.222Z,7.60
2022-09-29T06:52:18.353Z,7.50
2022-09-29T06:53:08.020Z,7.00
2022-09-29T06:54:12.075Z,8.00
2022-09-29T06:55:08.017Z,7.20
2022-09-29T06:56:08.035Z,7.70
2022-09-29T06:57:06.971Z,7.10
2022-09-29T06:58:08.025Z,7.80
2022-09-29T06:59:06.964Z,7.50
2022-09-29T07:00:06.947Z,8.20
2022-09-29T07:01:06.961Z,8.10
2022-09-29T07:02:06.945Z,8.00
2022-09-29T07:03:06.913Z,8.00
2022-09-29T07:04:06.918Z,8.10
2022-09-29T07:05:09.475Z,8.10
2022-09-29T07:06:22.372Z,7.90
2022-09-29T07:07:08.044Z,8.40
2022-09-29T07:08:06.854Z,8.10
2022-09-29T07:09:06.855Z,7.90
2022-09-29T07:10:06.857Z,8.30
2022-09-29T07:11:06.823Z,8.10
2022-09-29T07:12:06.812Z,8.00
2022-09-29T07:13:07.003Z,7.80
2022-09-29T07:14:06.800Z,8.80
2022-09-29T07:15:06.789Z,8.10
2022-09-29T07:16:06.849Z,8.30
2022-09-29T07:17:06.758Z,8.70
2022-09-29T07:18:06.754Z,8.50
2022-09-29T07:19:09.469Z,8.90
2022-09-29T07:20:06.738Z,8.00
2022-09-29T07:21:06.996Z,8.20
2022-09-29T07:22:06.726Z,7.80
2022-09-29T07:23:06.716Z,8.30
2022-09-29T07:24:06.686Z,8.30
2022-09-29T07:25:06.671Z,8.10
2022-09-29T07:26:06.672Z,7.90
2022-09-29T07:27:07.971Z,8.10
2022-09-29T07:28:06.637Z,8.40
2022-09-29T07:29:09.244Z,7.60
2022-09-29T07:30:07.464Z,8.30
2022-09-29T07:31:14.426Z,8.40
2022-09-29T07:32:10.958Z,7.60
2022-09-29T07:33:07.630Z,7.80
2022-09-29T07:34:09.475Z,8.20
2022-09-29T07:35:07.469Z,7.70
2022-09-29T07:36:06.558Z,8.10
2022-09-29T07:37:07.032Z,7.60
2022-09-29T07:38:09.488Z,7.30
2022-09-29T07:39:06.519Z,8.20
2022-09-29T07:40:06.521Z,7.80
2022-09-29T07:41:06.626Z,7.50
2022-09-29T07:42:09.311Z,8.60
2022-09-29T07:43:06.505Z,7.50
2022-09-29T07:44:06.465Z,7.40
2022-09-29T07:45:06.454Z,7.60
2022-09-29T07:46:06.539Z,7.40
2022-09-29T07:47:06.509Z,6.80
2022-09-29T07:48:06.437Z,7.40
2022-09-29T07:49:08.976Z,7.00
2022-09-29T07:50:06.428Z,7.30
2022-09-29T07:51:06.395Z,6.60
2022-09-29T07:52:06.375Z,7.10
2022-09-29T07:53:06.366Z,6.80
2022-09-29T07:54:06.362Z,6.90
2022-09-29T07:55:06.379Z,7.30
2022-09-29T07:56:06.342Z,6.80
2022-09-29T07:57:06.967Z,7.20
2022-09-29T07:58:27.322Z,6.60
2022-09-29T07:59:06.308Z,6.60
2022-09-29T08:00:06.976Z,6.40
2022-09-29T08:01:06.477Z,7.20
2022-09-29T08:02:09.081Z,6.70
2022-09-29T08:03:08.963Z,6.30
2022-09-29T08:04:06.267Z,7.20
2022-09-29T08:05:07.790Z,6.40
2022-09-29T08:06:06.235Z,6.90
2022-09-29T08:07:06.228Z,6.30
2022-09-29T08:08:06.198Z,6.40
2022-09-29T08:09:06.212Z,6.40
2022-09-29T08:10:15.915Z,6.00
2022-09-29T08:11:07.171Z,6.40
2022-09-29T08:12:08.306Z,5.90
2022-09-29T08:13:06.148Z,5.70
2022-09-29T08:14:06.136Z,6.00
2022-09-29T08:15:06.120Z,5.60
2022-09-29T08:16:10.563Z,5.90
2022-09-29T08:17:06.173Z,5.60
2022-09-29T08:18:06.112Z,6.20
2022-09-29T08:19:06.211Z,5.80
2022-09-29T08:20:06.064Z,6.10
2022-09-29T08:21:08.974Z,6.00
2022-09-29T08:22:06.051Z,5.80
2022-09-29T08:23:06.062Z,5.90
2022-09-29T08:24:06.023Z,6.00
2022-09-29T08:25:06.022Z,5.70
2022-09-29T08:26:06.068Z,5.80
2022-09-29T08:27:16.735Z,5.30
2022-09-29T08:28:07.007Z,4.90
2022-09-29T08:29:08.492Z,6.00
2022-09-29T08:30:05.959Z,5.30
2022-09-29T08:31:05.955Z,5.00
2022-09-29T08:32:06.547Z,5.80
2022-09-29T08:33:05.954Z,5.60
2022-09-29T08:34:05.931Z,5.50
2022-09-29T08:35:05.904Z,5.80
2022-09-29T08:36:05.892Z,5.00
2022-09-29T08:37:12.476Z,5.10
2022-09-29T08:38:06.475Z,5.50
2022-09-29T08:39:06.013Z,5.30
2022-09-29T08:40:05.845Z,5.80
2022-09-29T08:41:05.899Z,4.90
2022-09-29T08:42:05.874Z,5.10
2022-09-29T08:43:05.819Z,5.40
2022-09-29T08:44:05.832Z,5.10
2022-09-29T08:45:15.837Z,5.40
2022-09-29T08:46:06.831Z,5.50
2022-09-29T08:47:10.277Z,5.50
2022-09-29T08:48:17.588Z,5.10
2022-09-29T08:49:07.004Z,5.50
2022-09-29T08:50:05.770Z,6.50
2022-09-29T08:51:05.742Z,5.60
2022-09-29T08:52:15.790Z,5.40
2022-09-29T08:53:09.388Z,5.10
2022-09-29T08:54:06.709Z,5.30
2022-09-29T08:55:18.195Z,5.50
2022-09-29T08:56:06.697Z,5.40
2022-09-29T08:57:05.671Z,5.50
2022-09-29T08:58:05.663Z,5.20
2022-09-29T08:59:05.658Z,5.00
2022-09-29T09:00:05.647Z,5.10
2022-09-29T09:01:05.660Z,5.20
2022-09-29T09:02:12.526Z,5.10
2022-09-29T09:03:05.609Z,5.50
2022-09-29T09:04:05.589Z,5.50
2022-09-29T09:05:05.597Z,5.70
2022-09-29T09:06:05.582Z,5.50
2022-09-29T09:07:05.554Z,5.20
2022-09-29T09:08:05.612Z,5.60
2022-09-29T09:09:05.534Z,5.90
2022-09-29T09:10:05.545Z,5.10
2022-09-29T09:11:05.539Z,5.10
2022-09-29T09:12:05.523Z,5.60
2022-09-29T09:13:08.494Z,5.20
2022-09-29T09:14:05.472Z,5.00
2022-09-29T09:15:05.970Z,5.00
2022-09-29T09:16:05.468Z,4.50
2022-09-29T09:17:05.501Z,4.70
2022-09-29T09:18:05.447Z,4.60
2022-09-29T09:19:05.550Z,4.90
2022-09-29T09:20:05.420Z,4.90
2022-09-29T09:21:05.400Z,5.10
2022-09-29T09:22:05.410Z,4.90
2022-09-29T09:23:05.388Z,4.90
2022-09-29T09:24:07.975Z,4.80
2022-09-29T09:25:05.364Z,4.60
2022-09-29T09:26:05.375Z,4.50
2022-09-29T09:27:05.355Z,5.20
2022-09-29T09:28:05.979Z,5.00
2022-09-29T09:29:06.007Z,5.10
2022-09-29T09:30:05.363Z,4.70
2022-09-29T09:31:06.053Z,4.80
2022-09-29T09:32:05.289Z,4.80
2022-09-29T09:33:05.299Z,4.70
2022-09-29T09:34:06.715Z,5.10
2022-09-29T09:35:20.846Z,4.40
2022-09-29T09:36:06.260Z,4.80
2022-09-29T09:37:08.422Z,4.80
2022-09-29T09:38:05.230Z,4.40
2022-09-29T09:39:05.985Z,4.90
2022-09-29T09:40:05.200Z,4.60
2022-09-29T09:41:05.214Z,4.90
2022-09-29T09:42:05.166Z,4.70
2022-09-29T09:43:05.187Z,4.40
2022-09-29T09:44:05.518Z,4.60
2022-09-29T09:45:05.284Z,4.70
2022-09-29T09:46:05.187Z,4.70
2022-09-29T09:47:05.982Z,4.90
2022-09-29T09:48:05.105Z,4.70
2022-09-29T09:49:05.138Z,4.40
2022-09-29T09:50:05.087Z,4.50
2022-09-29T09:51:05.074Z,4.30
2022-09-29T09:52:05.149Z,4.20
2022-09-29T09:53:05.051Z,4.50
2022-09-29T09:54:05.042Z,4.60
2022-09-29T09:55:05.048Z,4.50
2022-09-29T09:56:05.050Z,4.30
2022-09-29T09:57:05.000Z,4.40
2022-09-29T09:58:06.053Z,4.40
2022-09-29T09:59:04.988Z,4.10
2022-09-29T10:00:04.981Z,4.30
2022-09-29T10:01:05.071Z,4.00
2022-09-29T10:02:05.017Z,4.00
2022-09-29T10:03:04.937Z,4.50
2022-09-29T10:04:04.931Z,4.00
2022-09-29T10:05:09.439Z,3.80
2022-09-29T10:06:04.927Z,4.00
2022-09-29T10:07:04.898Z,3.80
2022-09-29T10:08:04.913Z,4.00
2022-09-29T10:09:04.908Z,3.60
2022-09-29T10:10:04.879Z,3.70
2022-09-29T10:11:07.480Z,4.50
2022-09-29T10:12:04.840Z,3.90
2022-09-29T10:13:04.854Z,4.10
2022-09-29T10:14:04.822Z,5.00
2022-09-29T10:15:04.817Z,3.90
2022-09-29T10:16:04.827Z,3.80
2022-09-29T10:17:05.884Z,4.20
2022-09-29T10:18:04.772Z,4.30
2022-09-29T10:19:04.774Z,4.00
2022-09-29T10:20:04.770Z,3.70
2022-09-29T10:21:04.752Z,4.60
2022-09-29T10:22:04.756Z,3.90
2022-09-29T10:23:04.719Z,5.20
2022-09-29T10:24:04.871Z,3.30
2022-09-29T10:25:04.722Z,3.40
2022-09-29T10:26:04.698Z,3.70
2022-09-29T10:27:04.689Z,3.70
2022-09-29T10:28:04.666Z,3.70
2022-09-29T10:29:06.066Z,5.70
2022-09-29T10:30:04.645Z,4.30
2022-09-29T10:31:04.798Z,3.80
2022-09-29T10:32:04.623Z,3.40
2022-09-29T10:33:07.980Z,3.70
2022-09-29T10:34:05.596Z,3.60
2022-09-29T10:35:07.486Z,2.80
2022-09-29T10:36:04.613Z,3.30
2022-09-29T10:37:04.581Z,2.70
2022-09-29T10:38:04.559Z,2.70
2022-09-29T10:39:04.544Z,2.70
2022-09-29T10:40:05.497Z,2.00
2022-09-29T10:41:04.552Z,2.50
2022-09-29T10:42:04.515Z,2.20
2022-09-29T10:44:04.532Z,3.10
2022-09-29T10:45:04.481Z,5.70
2022-09-29T10:46:05.047Z,2.70
2022-09-29T10:47:05.511Z,2.90
2022-09-29T10:48:04.454Z,2.30
2022-09-29T10:49:04.479Z,2.10
2022-09-29T10:50:04.438Z,1.90
2022-09-29T10:51:04.993Z,3.10
2022-09-29T10:52:04.407Z,2.00
2022-09-29T10:53:04.403Z,1.70
2022-09-29T10:54:04.400Z,1.70
2022-09-29T10:55:04.406Z,2.30
2022-09-29T10:56:04.402Z,2.20
2022-09-29T10:57:07.001Z,1.90
2022-09-29T10:58:04.373Z,1.70
2022-09-29T10:59:05.917Z,2.10
2022-09-29T11:00:04.982Z,1.60
2022-09-29T11:01:04.357Z,1.50
2022-09-29T11:02:05.030Z,1.60
2022-09-29T11:03:04.280Z,1.40
2022-09-29T11:04:04.310Z,1.10
2022-09-29T11:05:04.273Z,1.30
2022-09-29T11:06:04.248Z,1.40
2022-09-29T11:07:04.244Z,2.40
2022-09-29T11:08:04.236Z,2.00
2022-09-29T11:09:04.373Z,1.40
2022-09-29T11:10:04.234Z,2.90
2022-09-29T11:11:04.195Z,1.20
2022-09-29T11:12:09.196Z,2.20
2022-09-29T11:13:05.171Z,1.30
2022-09-29T11:14:04.173Z,1.60
2022-09-29T11:15:04.187Z,1.80
2022-09-29T11:16:06.992Z,1.00
2022-09-29T11:17:04.985Z,1.00
2022-09-29T11:18:04.188Z,0.60
2022-09-29T11:19:04.128Z,0.90
2022-09-29T11:20:04.112Z,1.90
2022-09-29T11:21:04.125Z,0.80
2022-09-29T11:22:04.074Z,1.00
2022-09-29T11:23:04.065Z,1.00
2022-09-29T11:24:04.056Z,0.80
2022-09-29T11:25:04.518Z,0.90
2022-09-29T11:26:04.072Z,1.30
2022-09-29T11:27:04.020Z,1.40
2022-09-29T11:28:04.006Z,1.40
2022-09-29T11:29:04.002Z,1.30
2022-09-29T11:30:04.009Z,1.10
2022-09-29T11:31:04.014Z,1.00
2022-09-29T11:32:03.992Z,0.80
2022-09-29T11:33:04.998Z,1.10
2022-09-29T11:34:03.940Z,0.90
2022-09-29T11:35:03.937Z,0.80
2022-09-29T11:36:03.955Z,1.40
2022-09-29T11:37:03.945Z,0.70
2022-09-29T11:38:06.496Z,1.00
2022-09-29T11:39:03.890Z,0.60
2022-09-29T11:40:03.885Z,0.70
2022-09-29T11:41:03.872Z,0.70
2022-09-29T11:42:03.875Z,0.70
2022-09-29T11:43:03.847Z,1.00
2022-09-29T11:44:03.830Z,1.60
2022-09-29T11:45:03.834Z,0.80
2022-09-29T11:46:03.900Z,1.00
2022-09-29T11:47:03.822Z,0.70
2022-09-29T11:48:03.817Z,0.70
2022-09-29T11:49:03.773Z,1.70
2022-09-29T11:50:04.493Z,1.60
2022-09-29T11:51:04.482Z,1.30
2022-09-29T11:52:03.746Z,1.00
2022-09-29T11:53:03.772Z,0.60
2022-09-29T11:54:06.544Z,0.50
2022-09-29T11:55:03.722Z,0.80
2022-09-29T11:56:03.703Z,0.80
2022-09-29T11:57:04.489Z,0.90
2022-09-29T11:58:03.696Z,0.70
2022-09-29T11:59:03.695Z,1.40
2022-09-29T12:00:03.663Z,0.60
2022-09-29T12:01:03.636Z,1.70
2022-09-29T12:02:03.695Z,1.10
2022-09-29T12:03:03.739Z,0.60
2022-09-29T12:04:07.788Z,0.70
2022-09-29T12:05:04.624Z,0.80
2022-09-29T12:06:03.597Z,0.40
2022-09-29T12:07:03.577Z,0.50
2022-09-29T12:08:03.571Z,0.90
2022-09-29T12:09:03.694Z,1.20
2022-09-29T12:10:04.731Z,1.40
2022-09-29T12:11:17.913Z,0.60
2022-09-29T12:12:24.314Z,0.70
2022-09-29T12:13:04.520Z,0.80
2022-09-29T12:14:03.506Z,0.70
2022-09-29T12:15:03.527Z,1.00
2022-09-29T12:16:03.487Z,0.70
2022-09-29T12:17:03.590Z,0.90
2022-09-29T12:18:03.457Z,0.50
2022-09-29T12:19:03.453Z,1.30
2022-09-29T12:20:03.505Z,0.50
2022-09-29T12:21:03.474Z,0.80
2022-09-29T12:22:06.001Z,0.50
2022-09-29T12:23:03.409Z,0.70
2022-09-29T12:24:03.528Z,0.70
2022-09-29T12:25:03.401Z,0.50
2022-09-29T12:26:03.373Z,0.50
2022-09-29T12:27:03.991Z,0.60
2022-09-29T12:28:04.001Z,0.60
2022-09-29T12:29:03.347Z,0.50
2022-09-29T12:30:03.619Z,0.50
2022-09-29T12:31:03.371Z,2.20
2022-09-29T12:32:03.323Z,0.90
2022-09-29T12:33:03.292Z,1.10
2022-09-29T12:34:03.283Z,1.70
2022-09-29T12:35:04.292Z,0.90
2022-09-29T12:36:03.256Z,0.70
2022-09-29T12:37:03.275Z,0.70
2022-09-29T12:38:05.991Z,0.70
2022-09-29T12:39:08.009Z,0.70
2022-09-29T12:40:04.301Z,1.00
2022-09-29T12:41:03.246Z,1.00
2022-09-29T12:42:03.196Z,1.30
2022-09-29T12:43:03.208Z,0.70
2022-09-29T12:44:03.172Z,1.50
2022-09-29T12:45:05.016Z,1.00
2022-09-29T12:46:04.200Z,1.80
2022-09-29T12:47:03.144Z,0.80
2022-09-29T12:48:03.125Z,1.80
2022-09-29T12:49:03.140Z,1.80
2022-09-29T12:50:03.184Z,1.10
2022-09-29T12:51:03.097Z,1.60
2022-09-29T12:52:03.083Z,0.90
2022-09-29T12:53:07.007Z,0.60
2022-09-29T12:54:04.075Z,1.00
2022-09-29T12:55:04.086Z,0.60
2022-09-29T12:56:03.047Z,1.20
2022-09-29T12:57:03.066Z,0.60
2022-09-29T12:58:03.052Z,0.80
2022-09-29T12:59:03.041Z,0.80
2022-09-29T13:00:03.001Z,2.30
2022-09-29T13:01:04.078Z,1.20
2022-09-29T13:02:02.980Z,1.00
2022-09-29T13:03:02.969Z,0.70
2022-09-29T13:04:02.978Z,0.70
2022-09-29T13:05:02.958Z,1.00
2022-09-29T13:06:02.933Z,0.80
2022-09-29T13:07:02.946Z,0.50
2022-09-29T13:08:02.924Z,1.30
2022-09-29T13:09:03.012Z,0.60
2022-09-29T13:10:02.888Z,0.90
2022-09-29T13:11:02.882Z,0.80
2022-09-29T13:12:02.886Z,1.80
2022-09-29T13:13:03.530Z,0.70
2022-09-29T13:14:02.854Z,1.60
2022-09-29T13:15:02.836Z,1.10
2022-09-29T13:16:02.841Z,1.50
2022-09-29T13:17:02.812Z,1.10
2022-09-29T13:18:02.827Z,1.80
2022-09-29T13:19:14.538Z,1.20